createdAt,value
2023-03-04T00:01:33.020Z,115.18
2023-03-04T00:03:58.062Z,109.68
2023-03-04T00:06:22.494Z,101.82
2023-03-04T00:08:46.870Z,110.97
2023-03-04T00:11:11.361Z,112.15
2023-03-04T00:13:35.718Z,113.35
2023-03-04T00:16:04.009Z,107.15
2023-03-04T00:18:28.288Z,114.30
2023-03-04T00:20:52.869Z,112.13
2023-03-04T00:23:17.489Z,116.82
2023-03-04T00:25:43.571Z,116.25
2023-03-04T00:28:08.117Z,114.22
2023-03-04T00:30:32.786Z,111.35
2023-03-04T00:32:58.728Z,113.85
2023-03-04T00:35:23.337Z,114.65
2023-03-04T00:37:47.831Z,120.20
2023-03-04T00:40:15.109Z,106.05
2023-03-04T00:42:39.529Z,109.82
2023-03-04T00:45:04.069Z,111.28
2023-03-04T00:47:29.830Z,107.40
2023-03-04T00:49:55.633Z,110.10
2023-03-04T00:52:20.125Z,116.50
2023-03-04T00:54:44.647Z,111.22
2023-03-04T00:57:09.560Z,109.75
2023-03-04T00:59:34.296Z,111.30
2023-03-04T01:01:58.702Z,107.00
2023-03-04T01:04:23.172Z,114.25
2023-03-04T01:06:49.356Z,107.93
2023-03-04T01:09:14.413Z,113.10
2023-03-04T01:11:38.898Z,109.25
2023-03-04T01:14:03.322Z,112.88
2023-03-04T01:16:28.305Z,107.32
2023-03-04T01:18:52.892Z,107.70
2023-03-04T01:21:18.423Z,106.97
2023-03-04T01:23:44.730Z,106.75
2023-03-04T01:26:09.069Z,118.72
2023-03-04T01:28:35.896Z,116.32
2023-03-04T01:31:00.268Z,121.57
2023-03-04T01:33:24.927Z,121.88
2023-03-04T01:35:49.409Z,111.47
2023-03-04T01:38:14.427Z,109.22
2023-03-04T01:40:40.848Z,120.72
2023-03-04T01:43:05.470Z,107.20
2023-03-04T01:45:30.360Z,111.53
2023-03-04T01:47:54.757Z,111.00
2023-03-04T01:50:23.155Z,113.38
2023-03-04T01:52:47.624Z,115.38
2023-03-04T01:55:17.668Z,113.32
2023-03-04T01:57:43.524Z,112.43
2023-03-04T02:00:37.384Z,109.82
2023-03-04T02:03:07.245Z,115.00
2023-03-04T02:05:32.028Z,108.15
2023-03-04T02:07:57.330Z,111.10
2023-03-04T02:10:22.255Z,109.10
2023-03-04T02:12:48.418Z,114.88
2023-03-04T02:15:13.138Z,115.68
2023-03-04T02:17:37.538Z,113.13
2023-03-04T02:20:09.138Z,115.97
2023-03-04T02:22:40.177Z,114.97
2023-03-04T02:25:10.485Z,114.57
2023-03-04T02:27:36.534Z,120.90
2023-03-04T02:30:00.899Z,121.88
2023-03-04T02:32:27.412Z,124.35
2023-03-04T02:34:52.700Z,121.00
2023-03-04T02:37:19.720Z,114.88
2023-03-04T02:39:47.556Z,110.90
2023-03-04T02:42:12.765Z,113.68
2023-03-04T02:44:39.982Z,116.45
2023-03-04T02:47:06.615Z,119.93
2023-03-04T02:49:33.775Z,113.05
2023-03-04T02:52:02.699Z,111.40
2023-03-04T02:54:27.305Z,114.10
2023-03-04T02:56:54.700Z,112.75
2023-03-04T02:59:22.460Z,105.90
2023-03-04T03:01:50.202Z,110.93
2023-03-04T03:04:15.371Z,108.63
2023-03-04T03:06:42.259Z,108.63
2023-03-04T03:09:07.450Z,108.68
2023-03-04T03:11:32.034Z,116.07
2023-03-04T03:13:56.385Z,107.65
2023-03-04T03:16:23.155Z,106.70
2023-03-04T03:18:49.561Z,112.75
2023-03-04T03:21:13.980Z,111.18
2023-03-04T03:23:38.706Z,115.43
2023-03-04T03:26:04.858Z,114.75
2023-03-04T03:28:29.594Z,113.50
2023-03-04T03:30:53.914Z,114.22
2023-03-04T03:33:18.410Z,109.15
2023-03-04T03:35:44.775Z,107.70
2023-03-04T03:38:09.536Z,111.32
2023-03-04T03:40:34.217Z,105.63
2023-03-04T03:42:58.879Z,112.32
2023-03-04T03:45:23.562Z,120.47
2023-03-04T03:47:48.312Z,115.57
2023-03-04T03:50:13.190Z,103.97
2023-03-04T03:52:38.954Z,119.60
2023-03-04T03:55:03.506Z,114.72
2023-03-04T03:57:27.984Z,111.43
2023-03-04T03:59:52.335Z,114.78
2023-03-04T04:02:16.856Z,109.25
2023-03-04T04:04:42.368Z,122.72
2023-03-04T04:07:06.812Z,109.50
2023-03-04T04:09:32.518Z,118.25
2023-03-04T04:11:57.601Z,114.45
2023-03-04T04:14:21.932Z,113.05
2023-03-04T04:16:46.389Z,110.03
2023-03-04T04:19:16.691Z,107.63
2023-03-04T04:21:41.069Z,110.03
2023-03-04T04:24:05.929Z,107.65
2023-03-04T04:26:31.805Z,108.07
2023-03-04T04:28:56.206Z,112.95
2023-03-04T04:31:20.602Z,101.28
2023-03-04T04:33:47.447Z,102.93
2023-03-04T04:36:18.193Z,107.47
2023-03-04T04:38:42.581Z,105.40
2023-03-04T04:41:07.750Z,104.85
2023-03-04T04:43:33.607Z,103.30
2023-03-04T04:46:00.329Z,103.03
2023-03-04T04:48:24.678Z,102.72
2023-03-04T04:50:54.617Z,111.95
2023-03-04T04:53:18.996Z,99.57
2023-03-04T04:55:43.345Z,104.85
2023-03-04T04:58:08.262Z,108.47
2023-03-04T05:00:33.960Z,104.35
2023-03-04T05:02:58.454Z,109.63
2023-03-04T05:05:22.760Z,106.93
2023-03-04T05:07:48.626Z,118.97
2023-03-04T05:10:13.304Z,108.70
2023-03-04T05:12:37.707Z,115.82
2023-03-04T05:15:02.034Z,105.60
2023-03-04T05:17:28.960Z,112.50
2023-03-04T05:19:53.622Z,109.65
2023-03-04T05:22:18.039Z,121.68
2023-03-04T05:24:42.499Z,134.60
2023-03-04T05:27:07.243Z,129.52
2023-03-04T05:29:31.653Z,122.18
2023-03-04T05:31:56.121Z,114.30
2023-03-04T05:34:22.175Z,115.78
2023-03-04T05:36:46.655Z,120.55
2023-03-04T05:39:12.484Z,121.13
2023-03-04T05:41:36.978Z,113.95
2023-03-04T05:44:01.399Z,105.38
2023-03-04T05:46:26.375Z,93.07
2023-03-04T05:48:51.153Z,82.72
2023-03-04T05:51:17.006Z,86.57
2023-03-04T05:53:42.916Z,82.97
2023-03-04T05:56:11.460Z,79.88
2023-03-04T05:58:35.838Z,77.95
2023-03-04T06:01:01.877Z,86.72
2023-03-04T06:03:26.216Z,82.20
2023-03-04T06:05:50.963Z,84.25
2023-03-04T06:08:16.913Z,78.03
2023-03-04T06:10:42.715Z,86.78
2023-03-04T06:13:07.308Z,83.57
2023-03-04T06:15:32.281Z,80.20
2023-03-04T06:17:56.561Z,79.85
2023-03-04T06:20:21.143Z,78.07
2023-03-04T06:22:45.528Z,73.55
2023-03-04T06:25:12.234Z,79.10
2023-03-04T06:27:36.666Z,74.75
2023-03-04T06:30:03.177Z,73.13
2023-03-04T06:32:28.045Z,75.63
2023-03-04T06:34:52.516Z,79.30
2023-03-04T06:37:16.933Z,82.20
2023-03-04T06:39:41.385Z,78.45
2023-03-04T06:42:07.232Z,84.00
2023-03-04T06:44:32.004Z,77.38
2023-03-04T06:46:56.512Z,75.00
2023-03-04T06:49:20.867Z,72.78
2023-03-04T06:51:46.361Z,81.70
2023-03-04T06:54:11.174Z,82.28
2023-03-04T06:56:35.973Z,73.38
2023-03-04T06:59:01.855Z,76.68
2023-03-04T07:01:29.682Z,78.43
2023-03-04T07:03:54.897Z,70.43
2023-03-04T07:06:22.193Z,75.20
2023-03-04T07:08:46.982Z,75.35
2023-03-04T07:11:12.093Z,84.28
2023-03-04T07:13:38.450Z,73.20
2023-03-04T07:16:04.453Z,76.75
2023-03-04T07:18:29.068Z,73.53
2023-03-04T07:20:54.040Z,72.15
2023-03-04T07:23:18.297Z,73.60
2023-03-04T07:25:43.006Z,71.05
2023-03-04T07:28:07.300Z,77.65
2023-03-04T07:30:31.716Z,83.35
2023-03-04T07:32:58.995Z,82.13
2023-03-04T07:35:23.420Z,81.38
2023-03-04T07:37:47.971Z,84.40
2023-03-04T07:40:13.575Z,87.95
2023-03-04T07:42:38.435Z,81.35
2023-03-04T07:45:09.931Z,87.70
2023-03-04T07:47:34.381Z,85.75
2023-03-04T07:50:00.174Z,84.53
2023-03-04T07:52:24.683Z,87.32
2023-03-04T07:54:50.248Z,80.72
2023-03-04T07:57:15.443Z,84.18
2023-03-04T07:59:39.934Z,84.32
2023-03-04T08:02:04.461Z,79.80
2023-03-04T08:04:28.970Z,84.20
2023-03-04T08:06:54.828Z,93.97
2023-03-04T08:09:19.574Z,97.07
2023-03-04T08:11:44.656Z,92.28
2023-03-04T08:14:09.355Z,99.20
2023-03-04T08:16:34.284Z,99.85
2023-03-04T08:19:02.022Z,104.40
2023-03-04T08:21:28.193Z,104.05
2023-03-04T08:23:54.412Z,104.18
2023-03-04T08:26:22.159Z,103.88
2023-03-04T08:28:47.153Z,105.47
2023-03-04T08:31:11.747Z,112.20
2023-03-04T08:33:36.388Z,112.07
2023-03-04T08:36:01.667Z,122.68
2023-03-04T08:38:27.962Z,118.30
2023-03-04T08:40:58.153Z,116.13
2023-03-04T08:43:22.668Z,121.28
2023-03-04T08:45:47.025Z,123.60
2023-03-04T08:48:12.363Z,121.90
2023-03-04T08:50:37.544Z,121.53
2023-03-04T08:53:01.970Z,133.73
2023-03-04T08:55:26.534Z,127.70
2023-03-04T08:57:52.359Z,126.82
2023-03-04T09:00:17.810Z,123.72
2023-03-04T09:02:42.211Z,122.22
2023-03-04T09:05:08.062Z,130.10
2023-03-04T09:07:32.562Z,132.93
2023-03-04T09:09:56.910Z,131.60
2023-03-04T09:12:21.475Z,135.60
2023-03-04T09:15:10.677Z,131.65
2023-03-04T09:17:38.334Z,130.82
2023-03-04T09:20:19.193Z,133.57
2023-03-04T09:22:52.483Z,130.88
2023-03-04T09:25:37.528Z,115.38
2023-03-04T09:28:09.455Z,121.38
2023-03-04T09:30:38.808Z,114.85
2023-03-04T09:33:22.958Z,93.72
2023-03-04T09:36:31.629Z,83.38
2023-03-04T09:39:09.869Z,85.53
2023-03-04T09:50:08.600Z,92.53
2023-03-04T09:57:42.207Z,88.70
2023-03-04T10:01:24.877Z,84.15
2023-03-04T10:05:34.868Z,88.10
2023-03-04T10:09:16.537Z,83.97
2023-03-04T10:12:47.552Z,80.20
2023-03-04T10:23:59.863Z,74.68
2023-03-04T10:26:38.580Z,73.13
2023-03-04T10:29:49.040Z,63.28
2023-03-04T10:32:47.440Z,59.28
2023-03-04T10:35:27.791Z,65.25
2023-03-04T10:42:32.611Z,51.38
2023-03-04T10:45:50.735Z,57.35
2023-03-04T10:49:13.460Z,51.72
2023-03-04T10:52:46.353Z,55.17
2023-03-04T11:05:50.684Z,64.20
2023-03-04T11:22:17.731Z,57.03
2023-03-04T11:25:32.640Z,59.60
2023-03-04T11:29:59.672Z,60.28
2023-03-04T11:37:31.525Z,58.83
2023-03-04T11:41:07.220Z,61.75
2023-03-04T11:44:00.814Z,59.75
2023-03-04T11:47:45.348Z,53.92
2023-03-04T11:51:35.468Z,63.65
2023-03-04T11:55:02.832Z,58.75
2023-03-04T12:01:58.683Z,70.18
2023-03-04T12:09:59.655Z,68.75
2023-03-04T12:14:10.830Z,66.13
2023-03-04T12:27:36.841Z,82.90
2023-03-04T12:39:28.938Z,88.10
2023-03-04T12:43:38.602Z,90.63
2023-03-04T12:47:12.555Z,92.45
2023-03-04T12:50:36.047Z,96.55
2023-03-04T12:53:21.245Z,94.97
2023-03-04T12:55:51.976Z,96.03
2023-03-04T12:58:53.929Z,91.18
2023-03-04T13:02:06.285Z,79.72
2023-03-04T13:06:29.007Z,80.20
2023-03-04T13:10:11.936Z,79.28
2023-03-04T13:13:32.048Z,87.03
2023-03-04T13:17:13.253Z,89.75
2023-03-04T13:19:55.785Z,86.55
2023-03-04T13:27:02.627Z,79.88
2023-03-04T13:34:43.741Z,71.03
2023-03-04T13:43:02.629Z,72.47
2023-03-04T13:54:44.073Z,67.35
2023-03-04T14:02:40.860Z,67.40
2023-03-04T14:09:07.447Z,82.78
2023-03-04T14:16:54.951Z,87.15
2023-03-04T14:21:04.110Z,80.80
2023-03-04T14:24:54.675Z,88.53
2023-03-04T14:39:16.939Z,96.88
2023-03-04T14:42:45.395Z,94.45
2023-03-04T14:53:50.833Z,106.45
2023-03-04T15:01:05.140Z,97.97
2023-03-04T15:04:20.116Z,97.35
2023-03-04T15:08:18.158Z,98.15
2023-03-04T15:12:26.440Z,89.00
2023-03-04T15:15:56.396Z,94.32
2023-03-04T15:19:14.763Z,79.22
2023-03-04T15:22:58.636Z,80.88
2023-03-04T15:26:27.288Z,86.55
2023-03-04T15:30:24.853Z,83.47
2023-03-04T15:38:48.908Z,87.50
2023-03-04T16:04:18.827Z,79.50
2023-03-04T16:12:59.851Z,81.63
2023-03-04T16:28:54.292Z,68.75
2023-03-04T16:31:21.139Z,60.97
2023-03-04T16:33:45.897Z,70.57
2023-03-04T16:36:15.892Z,60.35
2023-03-04T16:41:04.786Z,62.70
2023-03-04T16:43:29.993Z,66.75
2023-03-04T16:45:56.204Z,62.17
2023-03-04T16:48:21.326Z,60.10
2023-03-04T16:50:46.437Z,60.72
2023-03-04T16:58:15.766Z,64.93
2023-03-04T17:00:42.820Z,68.65
2023-03-04T17:03:11.835Z,71.88
2023-03-04T17:05:36.369Z,66.43
2023-03-04T17:08:00.919Z,67.70
2023-03-04T17:10:26.148Z,63.53
2023-03-04T17:12:51.047Z,62.97
2023-03-04T17:15:16.219Z,67.82
2023-03-04T17:17:41.402Z,73.85
2023-03-04T17:20:08.900Z,80.82
2023-03-04T17:22:34.416Z,71.75
2023-03-04T17:24:59.141Z,67.90
2023-03-04T17:27:23.585Z,74.65
2023-03-04T17:29:49.098Z,70.43
2023-03-04T17:32:13.482Z,64.03
2023-03-04T17:34:37.980Z,72.03
2023-03-04T17:37:03.855Z,71.93
2023-03-04T17:39:28.646Z,67.20
2023-03-04T17:41:53.713Z,69.57
2023-03-04T17:44:18.685Z,74.97
2023-03-04T17:46:43.284Z,69.25
2023-03-04T17:49:08.865Z,78.13
2023-03-04T17:51:35.258Z,80.45
2023-03-04T17:54:01.566Z,78.00
2023-03-04T17:56:30.137Z,78.95
2023-03-04T17:58:54.722Z,79.75
2023-03-04T18:01:21.423Z,77.47
2023-03-04T18:03:46.735Z,72.70
2023-03-04T18:06:11.452Z,77.35
2023-03-04T18:08:36.064Z,75.40
2023-03-04T18:11:02.365Z,80.80
2023-03-04T18:13:27.510Z,80.95
2023-03-04T18:15:52.026Z,76.85
2023-03-04T18:18:19.283Z,84.57
2023-03-04T18:20:43.952Z,72.88
2023-03-04T18:23:09.168Z,77.95
2023-03-04T18:25:33.640Z,77.85
2023-03-04T18:27:59.966Z,71.93
2023-03-04T18:30:27.937Z,75.13
2023-03-04T18:32:53.513Z,77.72
2023-03-04T18:35:19.677Z,70.88
2023-03-04T18:37:45.384Z,74.30
2023-03-04T18:40:11.187Z,69.95
2023-03-04T18:42:37.579Z,76.40
2023-03-04T18:45:04.178Z,73.38
2023-03-04T18:47:28.876Z,64.72
2023-03-04T18:49:54.073Z,66.70
2023-03-04T18:52:20.239Z,68.97
2023-03-04T18:54:44.999Z,73.90
2023-03-04T18:57:12.279Z,68.03
2023-03-04T18:59:41.589Z,66.97
2023-03-04T19:02:13.324Z,68.00
2023-03-04T19:04:38.549Z,68.70
2023-03-04T19:07:03.347Z,66.03
2023-03-04T19:09:27.959Z,65.07
2023-03-04T19:11:52.356Z,71.20
2023-03-04T19:14:16.946Z,64.93
2023-03-04T19:16:41.684Z,71.07
2023-03-04T19:19:08.736Z,64.55
2023-03-04T19:21:33.271Z,72.57
2023-03-04T19:23:57.882Z,63.13
2023-03-04T19:26:22.299Z,68.63
2023-03-04T19:28:46.872Z,63.67
2023-03-04T19:31:12.336Z,64.18
2023-03-04T19:33:37.602Z,66.60
2023-03-04T19:36:05.119Z,66.35
2023-03-04T19:38:29.663Z,71.55
2023-03-04T19:40:54.500Z,70.65
2023-03-04T19:43:19.355Z,69.68
2023-03-04T19:45:43.910Z,74.40
2023-03-04T19:48:10.462Z,75.65
2023-03-04T19:50:35.161Z,71.22
2023-03-04T19:53:02.759Z,69.75
2023-03-04T19:55:27.256Z,72.80
2023-03-04T19:57:55.533Z,77.30
2023-03-04T20:00:23.344Z,77.22
2023-03-04T20:02:49.231Z,72.22
2023-03-04T20:05:13.656Z,71.78
2023-03-04T20:07:38.176Z,74.68
2023-03-04T20:10:04.624Z,67.93
2023-03-04T20:12:31.366Z,68.10
2023-03-04T20:14:55.938Z,69.90
2023-03-04T20:17:20.681Z,71.25
2023-03-04T20:19:45.300Z,76.00
2023-03-04T20:22:10.661Z,64.30
2023-03-04T20:24:35.137Z,77.03
2023-03-04T20:27:01.043Z,73.55
2023-03-04T20:29:30.113Z,66.88
2023-03-04T20:31:55.111Z,74.60
2023-03-04T20:34:19.517Z,75.95
2023-03-04T20:36:44.051Z,73.75
2023-03-04T20:39:26.959Z,68.90
2023-03-04T20:41:52.828Z,68.10
2023-03-04T20:44:18.838Z,74.97
2023-03-04T20:46:46.189Z,73.40
2023-03-04T20:49:12.606Z,72.20
2023-03-04T20:51:38.091Z,72.50
2023-03-04T20:54:03.915Z,76.57
2023-03-04T20:56:29.592Z,79.07
2023-03-04T20:58:55.951Z,63.17
2023-03-04T21:01:22.769Z,72.57
2023-03-04T21:03:47.853Z,71.00
2023-03-04T21:06:14.436Z,74.43
2023-03-04T21:08:38.834Z,88.22
2023-03-04T21:11:03.630Z,65.07
2023-03-04T21:13:30.835Z,66.10
2023-03-04T21:15:55.373Z,68.95
2023-03-04T21:18:21.468Z,71.90
2023-03-04T21:20:48.514Z,64.90
2023-03-04T21:23:13.190Z,71.85
2023-03-04T21:25:37.672Z,65.65
2023-03-04T21:28:02.430Z,66.65
2023-03-04T21:30:26.977Z,66.80
2023-03-04T21:32:52.665Z,67.18
2023-03-04T21:35:19.543Z,74.60
2023-03-04T21:37:44.106Z,74.20
2023-03-04T21:40:09.669Z,70.15
2023-03-04T21:42:34.160Z,71.13
2023-03-04T21:44:58.779Z,67.80
2023-03-04T21:47:23.827Z,75.13
2023-03-04T21:49:48.621Z,68.55
2023-03-04T21:52:14.842Z,67.50
2023-03-04T21:54:39.356Z,69.57
2023-03-04T21:57:04.030Z,63.53
2023-03-04T21:59:28.609Z,63.88
2023-03-04T22:01:55.232Z,64.80
2023-03-04T22:04:20.368Z,66.20
2023-03-04T22:06:44.792Z,72.40
2023-03-04T22:09:12.246Z,65.95
2023-03-04T22:11:36.857Z,67.10
2023-03-04T22:14:02.887Z,69.65
2023-03-04T22:16:27.807Z,72.55
2023-03-04T22:18:52.360Z,64.05
2023-03-04T22:21:19.288Z,73.72
2023-03-04T22:23:43.976Z,71.40
2023-03-04T22:26:13.098Z,68.88
2023-03-04T22:28:37.758Z,67.30
2023-03-04T22:31:03.007Z,64.65
2023-03-04T22:33:27.590Z,68.00
2023-03-04T22:35:53.574Z,65.63
2023-03-04T22:38:18.385Z,69.72
2023-03-04T22:40:42.829Z,69.05
2023-03-04T22:43:09.468Z,66.40
2023-03-04T22:45:33.991Z,67.18
2023-03-04T22:47:58.655Z,67.32
2023-03-04T22:50:23.718Z,65.43
2023-03-04T22:52:48.870Z,72.40
2023-03-04T22:55:14.450Z,63.90
2023-03-04T22:57:38.893Z,64.45
2023-03-04T23:00:07.784Z,66.30
2023-03-04T23:02:32.210Z,64.45
2023-03-04T23:04:56.678Z,68.07
2023-03-04T23:07:22.082Z,61.25
2023-03-04T23:09:46.601Z,66.85
2023-03-04T23:12:11.373Z,71.95
2023-03-04T23:14:35.862Z,59.83
2023-03-04T23:17:01.952Z,60.22
2023-03-04T23:19:28.907Z,60.92
2023-03-04T23:21:53.474Z,70.13
2023-03-04T23:24:19.646Z,65.60
2023-03-04T23:26:45.371Z,66.45
2023-03-04T23:29:12.607Z,64.80
2023-03-04T23:31:37.507Z,62.90
2023-03-04T23:34:05.034Z,62.85
2023-03-04T23:36:33.051Z,58.80
2023-03-04T23:38:57.588Z,69.35
2023-03-04T23:41:24.269Z,67.25
2023-03-04T23:43:51.339Z,57.08
2023-03-04T23:46:16.221Z,60.45
2023-03-04T23:48:46.316Z,64.78
2023-03-04T23:51:12.445Z,61.92
2023-03-04T23:53:39.100Z,58.67
2023-03-04T23:56:03.572Z,62.15
2023-03-04T23:58:28.298Z,62.78
